sensor_id;sensor_type;location;lat;lon;timestamp;temperature;humidity
7588;DHT22;3835;48.850;8.938;2023-05-10T00:01:00;12.40;99.90
7588;DHT22;3835;48.850;8.938;2023-05-10T00:03:27;12.50;99.90
7588;DHT22;3835;48.850;8.938;2023-05-10T00:05:54;12.40;99.90
7588;DHT22;3835;48.850;8.938;2023-05-10T00:08:23;12.30;99.90
7588;DHT22;3835;48.850;8.938;2023-05-10T00:10:49;12.30;99.90
7588;DHT22;3835;48.850;8.938;2023-05-10T00:13:16;12.40;99.90
7588;DHT22;3835;48.850;8.938;2023-05-10T00:15:43;12.30;99.90
7588;DHT22;3835;48.850;8.938;2023-05-10T00:18:10;12.30;99.90
7588;DHT22;3835;48.850;8.938;2023-05-10T00:20:36;12.30;99.90
7588;DHT22;3835;48.850;8.938;2023-05-10T00:23:03;12.20;99.90
7588;DHT22;3835;48.850;8.938;2023-05-10T00:25:32;12.20;99.90
7588;DHT22;3835;48.850;8.938;2023-05-10T00:27:58;12.20;99.90
7588;DHT22;3835;48.850;8.938;2023-05-10T00:30:26;12.20;99.90
7588;DHT22;3835;48.850;8.938;2023-05-10T00:32:53;12.10;99.90
7588;DHT22;3835;48.850;8.938;2023-05-10T00:35:20;12.20;99.90
7588;DHT22;3835;48.850;8.938;2023-05-10T00:37:47;12.10;99.90
7588;DHT22;3835;48.850;8.938;2023-05-10T00:40:14;12.10;99.90
7588;DHT22;3835;48.850;8.938;2023-05-10T00:42:42;12.00;99.90
7588;DHT22;3835;48.850;8.938;2023-05-10T00:45:09;12.00;99.90
7588;DHT22;3835;48.850;8.938;2023-05-10T00:47:37;11.90;99.90
7588;DHT22;3835;48.850;8.938;2023-05-10T00:50:05;12.00;99.90
7588;DHT22;3835;48.850;8.938;2023-05-10T00:52:32;12.00;99.90
7588;DHT22;3835;48.850;8.938;2023-05-10T00:54:58;12.00;99.90
7588;DHT22;3835;48.850;8.938;2023-05-10T00:57:26;12.00;99.90
7588;DHT22;3835;48.850;8.938;2023-05-10T00:59:54;11.90;99.90
7588;DHT22;3835;48.850;8.938;2023-05-10T01:02:21;11.90;99.90
7588;DHT22;3835;48.850;8.938;2023-05-10T01:04:49;11.90;99.90
7588;DHT22;3835;48.850;8.938;2023-05-10T01:07:16;11.90;99.90
7588;DHT22;3835;48.850;8.938;2023-05-10T01:09:42;11.90;99.90
7588;DHT22;3835;48.850;8.938;2023-05-10T01:12:09;11.90;99.90
7588;DHT22;3835;48.850;8.938;2023-05-10T01:14:36;11.90;99.90
7588;DHT22;3835;48.850;8.938;2023-05-10T01:17:05;11.90;99.90
7588;DHT22;3835;48.850;8.938;2023-05-10T01:19:34;12.00;99.90
7588;DHT22;3835;48.850;8.938;2023-05-10T01:22:10;12.00;99.90
7588;DHT22;3835;48.850;8.938;2023-05-10T01:28:05;12.00;99.90
7588;DHT22;3835;48.850;8.938;2023-05-10T01:31:14;12.00;99.90
7588;DHT22;3835;48.850;8.938;2023-05-10T01:33:48;12.00;99.90
7588;DHT22;3835;48.850;8.938;2023-05-10T01:38:50;12.00;99.90
7588;DHT22;3835;48.850;8.938;2023-05-10T01:41:20;12.00;99.90
7588;DHT22;3835;48.850;8.938;2023-05-10T01:43:55;12.00;99.90
7588;DHT22;3835;48.850;8.938;2023-05-10T01:46:28;12.00;99.90
7588;DHT22;3835;48.850;8.938;2023-05-10T01:49:00;12.00;99.90
7588;DHT22;3835;48.850;8.938;2023-05-10T01:51:34;12.00;99.90
7588;DHT22;3835;48.850;8.938;2023-05-10T01:54:04;11.90;99.90
7588;DHT22;3835;48.850;8.938;2023-05-10T01:56:33;11.90;99.90
7588;DHT22;3835;48.850;8.938;2023-05-10T01:59:06;11.90;99.90
7588;DHT22;3835;48.850;8.938;2023-05-10T02:01:36;12.00;99.90
7588;DHT22;3835;48.850;8.938;2023-05-10T02:04:05;11.90;99.90
7588;DHT22;3835;48.850;8.938;2023-05-10T02:06:33;11.90;99.90
7588;DHT22;3835;48.850;8.938;2023-05-10T02:09:01;11.90;99.90
7588;DHT22;3835;48.850;8.938;2023-05-10T02:11:29;11.90;99.90
7588;DHT22;3835;48.850;8.938;2023-05-10T02:13:58;11.80;99.90
7588;DHT22;3835;48.850;8.938;2023-05-10T02:16:26;11.80;99.90
7588;DHT22;3835;48.850;8.938;2023-05-10T02:18:57;11.80;99.90
7588;DHT22;3835;48.850;8.938;2023-05-10T02:21:26;11.80;99.90
7588;DHT22;3835;48.850;8.938;2023-05-10T02:23:55;11.80;99.90
7588;DHT22;3835;48.850;8.938;2023-05-10T02:26:23;11.80;99.90
7588;DHT22;3835;48.850;8.938;2023-05-10T02:28:52;11.80;99.90
7588;DHT22;3835;48.850;8.938;2023-05-10T02:31:20;11.80;99.90
7588;DHT22;3835;48.850;8.938;2023-05-10T02:33:48;11.80;99.90
7588;DHT22;3835;48.850;8.938;2023-05-10T02:36:15;11.80;99.90
7588;DHT22;3835;48.850;8.938;2023-05-10T02:38:44;11.80;99.90
7588;DHT22;3835;48.850;8.938;2023-05-10T02:41:12;11.70;99.90
7588;DHT22;3835;48.850;8.938;2023-05-10T02:43:40;11.80;99.90
7588;DHT22;3835;48.850;8.938;2023-05-10T02:46:07;11.80;99.90
7588;DHT22;3835;48.850;8.938;2023-05-10T02:48:34;11.80;99.90
7588;DHT22;3835;48.850;8.938;2023-05-10T02:51:05;11.90;99.90
7588;DHT22;3835;48.850;8.938;2023-05-10T02:53:36;11.90;99.90
7588;DHT22;3835;48.850;8.938;2023-05-10T02:56:11;11.90;99.90
7588;DHT22;3835;48.850;8.938;2023-05-10T02:58:40;12.00;99.90
7588;DHT22;3835;48.850;8.938;2023-05-10T03:01:06;12.00;99.90
7588;DHT22;3835;48.850;8.938;2023-05-10T03:03:34;12.00;99.90
7588;DHT22;3835;48.850;8.938;2023-05-10T03:06:00;12.00;99.90
7588;DHT22;3835;48.850;8.938;2023-05-10T03:08:28;12.10;99.90
7588;DHT22;3835;48.850;8.938;2023-05-10T03:11:04;12.10;99.90
7588;DHT22;3835;48.850;8.938;2023-05-10T03:13:43;12.10;99.90
7588;DHT22;3835;48.850;8.938;2023-05-10T03:16:15;12.10;99.90
7588;DHT22;3835;48.850;8.938;2023-05-10T03:18:47;12.10;99.90
7588;DHT22;3835;48.850;8.938;2023-05-10T03:21:17;12.20;99.90
7588;DHT22;3835;48.850;8.938;2023-05-10T03:23:50;12.20;99.90
7588;DHT22;3835;48.850;8.938;2023-05-10T03:26:21;12.20;99.90
7588;DHT22;3835;48.850;8.938;2023-05-10T03:28:51;12.20;99.90
7588;DHT22;3835;48.850;8.938;2023-05-10T03:31:19;12.20;99.90
7588;DHT22;3835;48.850;8.938;2023-05-10T03:33:46;12.20;99.90
7588;DHT22;3835;48.850;8.938;2023-05-10T03:36:13;12.30;99.90
7588;DHT22;3835;48.850;8.938;2023-05-10T03:38:40;12.30;99.90
7588;DHT22;3835;48.850;8.938;2023-05-10T03:41:07;12.10;99.90
7588;DHT22;3835;48.850;8.938;2023-05-10T03:43:34;12.10;99.90
7588;DHT22;3835;48.850;8.938;2023-05-10T03:46:03;12.00;99.90
7588;DHT22;3835;48.850;8.938;2023-05-10T03:48:30;11.90;99.90
7588;DHT22;3835;48.850;8.938;2023-05-10T03:50:57;11.80;99.90
7588;DHT22;3835;48.850;8.938;2023-05-10T03:53:23;11.80;99.90
7588;DHT22;3835;48.850;8.938;2023-05-10T03:55:50;11.80;99.90
7588;DHT22;3835;48.850;8.938;2023-05-10T03:58:17;11.80;99.90
7588;DHT22;3835;48.850;8.938;2023-05-10T04:00:44;11.80;99.90
7588;DHT22;3835;48.850;8.938;2023-05-10T04:03:12;11.80;99.90
7588;DHT22;3835;48.850;8.938;2023-05-10T04:05:39;11.80;99.90
7588;DHT22;3835;48.850;8.938;2023-05-10T04:08:06;11.80;99.90
7588;DHT22;3835;48.850;8.938;2023-05-10T04:10:33;11.80;99.90
7588;DHT22;3835;48.850;8.938;2023-05-10T04:13:00;11.80;99.90
7588;DHT22;3835;48.850;8.938;2023-05-10T04:15:26;11.80;99.90
7588;DHT22;3835;48.850;8.938;2023-05-10T04:17:53;11.80;99.90
7588;DHT22;3835;48.850;8.938;2023-05-10T04:20:21;11.80;99.90
7588;DHT22;3835;48.850;8.938;2023-05-10T04:22:48;11.80;99.90
7588;DHT22;3835;48.850;8.938;2023-05-10T04:25:15;11.80;99.90
7588;DHT22;3835;48.850;8.938;2023-05-10T04:27:42;11.80;99.90
7588;DHT22;3835;48.850;8.938;2023-05-10T04:30:09;11.90;99.90
7588;DHT22;3835;48.850;8.938;2023-05-10T04:32:36;11.90;99.90
7588;DHT22;3835;48.850;8.938;2023-05-10T04:35:03;11.90;99.90
7588;DHT22;3835;48.850;8.938;2023-05-10T04:37:32;12.00;99.90
7588;DHT22;3835;48.850;8.938;2023-05-10T04:39:58;12.00;99.90
7588;DHT22;3835;48.850;8.938;2023-05-10T04:42:26;12.10;99.90
7588;DHT22;3835;48.850;8.938;2023-05-10T04:44:53;12.10;99.90
7588;DHT22;3835;48.850;8.938;2023-05-10T04:47:19;12.10;99.90
7588;DHT22;3835;48.850;8.938;2023-05-10T04:49:46;12.10;99.90
7588;DHT22;3835;48.850;8.938;2023-05-10T04:52:13;12.20;99.90
7588;DHT22;3835;48.850;8.938;2023-05-10T04:54:43;12.20;99.90
7588;DHT22;3835;48.850;8.938;2023-05-10T04:57:09;12.20;99.90
7588;DHT22;3835;48.850;8.938;2023-05-10T04:59:36;12.20;99.90
7588;DHT22;3835;48.850;8.938;2023-05-10T05:02:03;12.30;99.90
7588;DHT22;3835;48.850;8.938;2023-05-10T05:04:31;12.30;99.90
7588;DHT22;3835;48.850;8.938;2023-05-10T05:06:57;12.30;99.90
7588;DHT22;3835;48.850;8.938;2023-05-10T05:09:24;12.40;99.90
7588;DHT22;3835;48.850;8.938;2023-05-10T05:11:52;12.50;99.90
7588;DHT22;3835;48.850;8.938;2023-05-10T05:14:19;12.50;99.90
7588;DHT22;3835;48.850;8.938;2023-05-10T05:16:46;12.60;99.90
7588;DHT22;3835;48.850;8.938;2023-05-10T05:19:13;12.60;99.90
7588;DHT22;3835;48.850;8.938;2023-05-10T05:21:39;12.70;99.90
7588;DHT22;3835;48.850;8.938;2023-05-10T05:24:06;12.80;99.90
7588;DHT22;3835;48.850;8.938;2023-05-10T05:26:34;12.70;99.90
7588;DHT22;3835;48.850;8.938;2023-05-10T05:29:02;12.70;99.90
7588;DHT22;3835;48.850;8.938;2023-05-10T05:31:28;12.80;99.90
7588;DHT22;3835;48.850;8.938;2023-05-10T05:33:55;12.80;99.90
7588;DHT22;3835;48.850;8.938;2023-05-10T05:36:22;12.80;99.90
7588;DHT22;3835;48.850;8.938;2023-05-10T05:38:49;12.90;99.90
7588;DHT22;3835;48.850;8.938;2023-05-10T05:41:16;12.90;99.90
7588;DHT22;3835;48.850;8.938;2023-05-10T05:43:43;12.90;99.90
7588;DHT22;3835;48.850;8.938;2023-05-10T05:46:11;13.00;99.90
7588;DHT22;3835;48.850;8.938;2023-05-10T05:48:38;13.00;99.90
7588;DHT22;3835;48.850;8.938;2023-05-10T05:51:05;13.00;99.90
7588;DHT22;3835;48.850;8.938;2023-05-10T05:53:31;13.10;99.90
7588;DHT22;3835;48.850;8.938;2023-05-10T05:55:59;13.10;99.90
7588;DHT22;3835;48.850;8.938;2023-05-10T05:58:25;13.10;99.90
7588;DHT22;3835;48.850;8.938;2023-05-10T06:00:53;13.10;99.90
7588;DHT22;3835;48.850;8.938;2023-05-10T06:03:21;13.30;99.90
7588;DHT22;3835;48.850;8.938;2023-05-10T06:05:48;13.30;99.90
7588;DHT22;3835;48.850;8.938;2023-05-10T06:08:15;13.40;99.90
7588;DHT22;3835;48.850;8.938;2023-05-10T06:10:42;13.50;99.90
7588;DHT22;3835;48.850;8.938;2023-05-10T06:13:09;13.50;99.90
7588;DHT22;3835;48.850;8.938;2023-05-10T06:15:36;13.50;99.90
7588;DHT22;3835;48.850;8.938;2023-05-10T06:18:03;13.70;99.90
7588;DHT22;3835;48.850;8.938;2023-05-10T06:20:32;13.70;99.90
7588;DHT22;3835;48.850;8.938;2023-05-10T06:22:59;13.70;99.90
7588;DHT22;3835;48.850;8.938;2023-05-10T06:25:25;13.80;99.90
7588;DHT22;3835;48.850;8.938;2023-05-10T06:27:52;13.90;99.90
7588;DHT22;3835;48.850;8.938;2023-05-10T06:30:23;14.00;99.90
7588;DHT22;3835;48.850;8.938;2023-05-10T06:32:52;14.10;99.90
7588;DHT22;3835;48.850;8.938;2023-05-10T06:35:20;14.10;99.90
7588;DHT22;3835;48.850;8.938;2023-05-10T06:37:48;14.30;99.90
7588;DHT22;3835;48.850;8.938;2023-05-10T06:40:15;14.50;99.90
7588;DHT22;3835;48.850;8.938;2023-05-10T06:42:42;14.60;99.90
7588;DHT22;3835;48.850;8.938;2023-05-10T06:45:10;14.60;99.90
7588;DHT22;3835;48.850;8.938;2023-05-10T06:47:37;14.70;99.90
7588;DHT22;3835;48.850;8.938;2023-05-10T06:50:05;14.70;99.90
7588;DHT22;3835;48.850;8.938;2023-05-10T06:52:32;14.80;99.90
7588;DHT22;3835;48.850;8.938;2023-05-10T06:55:00;14.70;99.90
7588;DHT22;3835;48.850;8.938;2023-05-10T06:57:27;14.70;99.90
7588;DHT22;3835;48.850;8.938;2023-05-10T06:59:54;14.80;99.90
7588;DHT22;3835;48.850;8.938;2023-05-10T07:02:21;15.00;99.90
7588;DHT22;3835;48.850;8.938;2023-05-10T07:04:48;15.10;99.90
7588;DHT22;3835;48.850;8.938;2023-05-10T07:07:15;15.10;99.90
7588;DHT22;3835;48.850;8.938;2023-05-10T07:09:42;15.10;99.90
7588;DHT22;3835;48.850;8.938;2023-05-10T07:12:10;15.20;99.90
7588;DHT22;3835;48.850;8.938;2023-05-10T07:14:37;14.80;99.90
7588;DHT22;3835;48.850;8.938;2023-05-10T07:17:03;14.80;99.90
7588;DHT22;3835;48.850;8.938;2023-05-10T07:19:30;15.00;99.90
7588;DHT22;3835;48.850;8.938;2023-05-10T07:21:58;15.10;99.90
7588;DHT22;3835;48.850;8.938;2023-05-10T07:24:24;15.10;99.90
7588;DHT22;3835;48.850;8.938;2023-05-10T07:26:51;15.10;99.90
7588;DHT22;3835;48.850;8.938;2023-05-10T07:29:19;15.40;99.90
7588;DHT22;3835;48.850;8.938;2023-05-10T07:31:46;15.30;99.90
7588;DHT22;3835;48.850;8.938;2023-05-10T07:34:13;15.40;99.90
7588;DHT22;3835;48.850;8.938;2023-05-10T07:36:40;15.10;99.90
7588;DHT22;3835;48.850;8.938;2023-05-10T07:39:06;15.10;99.90
7588;DHT22;3835;48.850;8.938;2023-05-10T07:41:33;15.00;99.90
7588;DHT22;3835;48.850;8.938;2023-05-10T07:44:00;15.20;99.90
7588;DHT22;3835;48.850;8.938;2023-05-10T07:46:28;15.30;99.90
7588;DHT22;3835;48.850;8.938;2023-05-10T07:48:55;15.40;99.90
7588;DHT22;3835;48.850;8.938;2023-05-10T07:51:22;15.40;99.90
7588;DHT22;3835;48.850;8.938;2023-05-10T07:53:49;15.10;99.90
7588;DHT22;3835;48.850;8.938;2023-05-10T07:56:23;14.90;99.90
7588;DHT22;3835;48.850;8.938;2023-05-10T07:58:52;14.70;99.90
7588;DHT22;3835;48.850;8.938;2023-05-10T08:01:18;14.80;99.90
7588;DHT22;3835;48.850;8.938;2023-05-10T08:03:47;15.00;99.90
7588;DHT22;3835;48.850;8.938;2023-05-10T08:06:14;15.00;99.90
7588;DHT22;3835;48.850;8.938;2023-05-10T08:08:41;15.00;99.90
7588;DHT22;3835;48.850;8.938;2023-05-10T08:11:07;15.00;99.90
7588;DHT22;3835;48.850;8.938;2023-05-10T08:13:34;15.10;99.90
7588;DHT22;3835;48.850;8.938;2023-05-10T08:16:01;15.10;99.90
7588;DHT22;3835;48.850;8.938;2023-05-10T08:18:28;15.00;99.90
7588;DHT22;3835;48.850;8.938;2023-05-10T08:20:56;14.80;99.90
7588;DHT22;3835;48.850;8.938;2023-05-10T08:23:22;14.70;99.90
7588;DHT22;3835;48.850;8.938;2023-05-10T08:25:49;14.80;99.90
7588;DHT22;3835;48.850;8.938;2023-05-10T08:28:16;14.60;99.90
7588;DHT22;3835;48.850;8.938;2023-05-10T08:30:43;15.10;99.90
7588;DHT22;3835;48.850;8.938;2023-05-10T08:33:09;15.30;99.90
7588;DHT22;3835;48.850;8.938;2023-05-10T08:35:36;15.30;99.90
7588;DHT22;3835;48.850;8.938;2023-05-10T08:38:04;15.40;99.90
7588;DHT22;3835;48.850;8.938;2023-05-10T08:40:31;15.60;99.90
7588;DHT22;3835;48.850;8.938;2023-05-10T08:43:03;15.90;99.90
7588;DHT22;3835;48.850;8.938;2023-05-10T08:45:32;16.10;99.90
7588;DHT22;3835;48.850;8.938;2023-05-10T08:48:29;16.70;99.90
7588;DHT22;3835;48.850;8.938;2023-05-10T08:50:58;16.10;99.90
7588;DHT22;3835;48.850;8.938;2023-05-10T08:53:42;15.70;99.90
7588;DHT22;3835;48.850;8.938;2023-05-10T08:56:09;15.90;99.90
7588;DHT22;3835;48.850;8.938;2023-05-10T08:58:36;15.80;99.90
7588;DHT22;3835;48.850;8.938;2023-05-10T09:01:03;15.90;99.90
7588;DHT22;3835;48.850;8.938;2023-05-10T09:03:30;16.50;99.90
7588;DHT22;3835;48.850;8.938;2023-05-10T09:05:58;16.60;99.90
7588;DHT22;3835;48.850;8.938;2023-05-10T09:08:25;16.90;99.90
7588;DHT22;3835;48.850;8.938;2023-05-10T09:10:54;17.40;99.90
7588;DHT22;3835;48.850;8.938;2023-05-10T09:13:22;17.30;99.90
7588;DHT22;3835;48.850;8.938;2023-05-10T09:15:49;16.80;99.90
7588;DHT22;3835;48.850;8.938;2023-05-10T09:18:17;16.00;99.90
7588;DHT22;3835;48.850;8.938;2023-05-10T09:20:44;15.50;99.90
7588;DHT22;3835;48.850;8.938;2023-05-10T09:23:11;15.60;99.90
7588;DHT22;3835;48.850;8.938;2023-05-10T09:25:37;15.10;99.90
7588;DHT22;3835;48.850;8.938;2023-05-10T09:28:07;15.10;99.90
7588;DHT22;3835;48.850;8.938;2023-05-10T09:30:35;15.00;99.90
7588;DHT22;3835;48.850;8.938;2023-05-10T09:33:02;15.20;99.90
7588;DHT22;3835;48.850;8.938;2023-05-10T09:35:30;15.20;99.90
7588;DHT22;3835;48.850;8.938;2023-05-10T09:37:59;15.40;99.90
7588;DHT22;3835;48.850;8.938;2023-05-10T09:40:28;15.60;99.90
7588;DHT22;3835;48.850;8.938;2023-05-10T09:42:57;15.50;99.90
7588;DHT22;3835;48.850;8.938;2023-05-10T09:45:26;15.60;99.90
7588;DHT22;3835;48.850;8.938;2023-05-10T09:47:54;15.70;99.90
7588;DHT22;3835;48.850;8.938;2023-05-10T09:50:21;15.90;99.90
7588;DHT22;3835;48.850;8.938;2023-05-10T09:52:49;15.80;99.90
7588;DHT22;3835;48.850;8.938;2023-05-10T09:55:18;16.00;99.90
7588;DHT22;3835;48.850;8.938;2023-05-10T09:57:46;16.30;99.90
7588;DHT22;3835;48.850;8.938;2023-05-10T10:00:17;16.20;99.90
7588;DHT22;3835;48.850;8.938;2023-05-10T10:02:47;16.30;99.90
7588;DHT22;3835;48.850;8.938;2023-05-10T10:05:15;16.30;99.90
7588;DHT22;3835;48.850;8.938;2023-05-10T10:07:41;15.60;99.90
7588;DHT22;3835;48.850;8.938;2023-05-10T10:10:09;15.20;99.90
7588;DHT22;3835;48.850;8.938;2023-05-10T10:12:39;14.80;99.90
7588;DHT22;3835;48.850;8.938;2023-05-10T10:15:08;15.00;99.90
7588;DHT22;3835;48.850;8.938;2023-05-10T10:17:36;14.80;99.90
7588;DHT22;3835;48.850;8.938;2023-05-10T10:20:07;14.80;99.90
7588;DHT22;3835;48.850;8.938;2023-05-10T10:22:34;14.90;99.90
7588;DHT22;3835;48.850;8.938;2023-05-10T10:25:00;15.20;99.90
7588;DHT22;3835;48.850;8.938;2023-05-10T10:27:36;15.30;99.90
7588;DHT22;3835;48.850;8.938;2023-05-10T10:30:13;15.20;99.90
7588;DHT22;3835;48.850;8.938;2023-05-10T10:32:55;15.30;99.90
7588;DHT22;3835;48.850;8.938;2023-05-10T10:35:28;15.60;99.90
7588;DHT22;3835;48.850;8.938;2023-05-10T10:37:55;16.00;99.90
7588;DHT22;3835;48.850;8.938;2023-05-10T10:40:24;16.20;99.90
7588;DHT22;3835;48.850;8.938;2023-05-10T10:42:51;15.90;99.90
7588;DHT22;3835;48.850;8.938;2023-05-10T10:45:20;15.90;99.90
7588;DHT22;3835;48.850;8.938;2023-05-10T10:47:47;15.70;99.90
7588;DHT22;3835;48.850;8.938;2023-05-10T10:50:15;16.20;99.90
7588;DHT22;3835;48.850;8.938;2023-05-10T10:52:44;16.10;99.90
7588;DHT22;3835;48.850;8.938;2023-05-10T10:55:13;16.00;99.90
7588;DHT22;3835;48.850;8.938;2023-05-10T10:57:46;16.50;99.90
7588;DHT22;3835;48.850;8.938;2023-05-10T11:00:22;17.00;99.90
7588;DHT22;3835;48.850;8.938;2023-05-10T11:02:50;17.00;99.90
7588;DHT22;3835;48.850;8.938;2023-05-10T11:08:16;17.50;99.90
7588;DHT22;3835;48.850;8.938;2023-05-10T11:10:51;18.00;99.90
7588;DHT22;3835;48.850;8.938;2023-05-10T11:13:27;17.70;99.90
7588;DHT22;3835;48.850;8.938;2023-05-10T11:15:54;17.90;99.90
7588;DHT22;3835;48.850;8.938;2023-05-10T11:18:24;17.80;99.90
7588;DHT22;3835;48.850;8.938;2023-05-10T11:20:52;17.20;99.90
7588;DHT22;3835;48.850;8.938;2023-05-10T11:23:20;17.50;99.90
7588;DHT22;3835;48.850;8.938;2023-05-10T11:25:49;17.60;99.90
7588;DHT22;3835;48.850;8.938;2023-05-10T11:28:17;17.90;99.90
7588;DHT22;3835;48.850;8.938;2023-05-10T11:30:45;17.40;99.90
7588;DHT22;3835;48.850;8.938;2023-05-10T11:33:15;17.10;99.90
7588;DHT22;3835;48.850;8.938;2023-05-10T11:35:43;16.70;99.90
7588;DHT22;3835;48.850;8.938;2023-05-10T11:38:11;16.50;99.90
7588;DHT22;3835;48.850;8.938;2023-05-10T11:40:40;16.20;99.90
7588;DHT22;3835;48.850;8.938;2023-05-10T11:43:09;16.30;99.90
7588;DHT22;3835;48.850;8.938;2023-05-10T11:45:36;16.10;99.90
7588;DHT22;3835;48.850;8.938;2023-05-10T11:48:03;16.30;99.90
7588;DHT22;3835;48.850;8.938;2023-05-10T11:50:30;16.00;99.90
7588;DHT22;3835;48.850;8.938;2023-05-10T11:52:58;16.20;99.90
7588;DHT22;3835;48.850;8.938;2023-05-10T11:55:25;16.50;99.90
7588;DHT22;3835;48.850;8.938;2023-05-10T11:57:54;16.60;99.90
7588;DHT22;3835;48.850;8.938;2023-05-10T12:00:21;16.50;99.90
7588;DHT22;3835;48.850;8.938;2023-05-10T12:02:48;16.50;99.90
7588;DHT22;3835;48.850;8.938;2023-05-10T12:05:15;16.50;99.90
7588;DHT22;3835;48.850;8.938;2023-05-10T12:07:42;16.50;99.90
7588;DHT22;3835;48.850;8.938;2023-05-10T12:10:11;16.50;99.90
7588;DHT22;3835;48.850;8.938;2023-05-10T12:12:40;16.40;99.90
7588;DHT22;3835;48.850;8.938;2023-05-10T12:15:17;16.50;99.90
7588;DHT22;3835;48.850;8.938;2023-05-10T12:17:45;16.60;99.90
7588;DHT22;3835;48.850;8.938;2023-05-10T12:20:16;16.40;99.90
7588;DHT22;3835;48.850;8.938;2023-05-10T12:22:47;16.00;99.90
7588;DHT22;3835;48.850;8.938;2023-05-10T12:25:16;16.50;99.90
7588;DHT22;3835;48.850;8.938;2023-05-10T12:27:51;16.50;99.90
7588;DHT22;3835;48.850;8.938;2023-05-10T12:30:23;16.60;99.90
7588;DHT22;3835;48.850;8.938;2023-05-10T12:32:50;16.60;99.90
7588;DHT22;3835;48.850;8.938;2023-05-10T12:35:18;16.70;99.90
7588;DHT22;3835;48.850;8.938;2023-05-10T12:37:47;17.20;99.90
7588;DHT22;3835;48.850;8.938;2023-05-10T12:40:14;17.20;99.90
7588;DHT22;3835;48.850;8.938;2023-05-10T12:42:41;17.40;99.90
7588;DHT22;3835;48.850;8.938;2023-05-10T12:45:11;17.60;99.90
7588;DHT22;3835;48.850;8.938;2023-05-10T12:47:39;17.70;99.90
7588;DHT22;3835;48.850;8.938;2023-05-10T12:50:06;17.80;99.90
7588;DHT22;3835;48.850;8.938;2023-05-10T12:52:33;17.80;99.90
7588;DHT22;3835;48.850;8.938;2023-05-10T12:55:00;17.70;99.90
7588;DHT22;3835;48.850;8.938;2023-05-10T12:57:27;17.50;99.90
7588;DHT22;3835;48.850;8.938;2023-05-10T12:59:54;18.10;99.90
7588;DHT22;3835;48.850;8.938;2023-05-10T13:02:21;18.10;99.90
7588;DHT22;3835;48.850;8.938;2023-05-10T13:04:50;17.80;99.90
7588;DHT22;3835;48.850;8.938;2023-05-10T13:07:16;17.70;99.90
7588;DHT22;3835;48.850;8.938;2023-05-10T13:09:43;17.50;99.90
7588;DHT22;3835;48.850;8.938;2023-05-10T13:12:10;17.70;99.90
7588;DHT22;3835;48.850;8.938;2023-05-10T13:14:37;18.00;99.90
7588;DHT22;3835;48.850;8.938;2023-05-10T13:17:05;18.10;99.90
7588;DHT22;3835;48.850;8.938;2023-05-10T13:19:32;18.20;99.90
7588;DHT22;3835;48.850;8.938;2023-05-10T13:22:00;18.30;99.90
7588;DHT22;3835;48.850;8.938;2023-05-10T13:24:27;18.30;99.90
7588;DHT22;3835;48.850;8.938;2023-05-10T13:26:54;18.50;99.90
7588;DHT22;3835;48.850;8.938;2023-05-10T13:29:21;18.30;99.90
7588;DHT22;3835;48.850;8.938;2023-05-10T13:31:48;18.30;99.90
7588;DHT22;3835;48.850;8.938;2023-05-10T13:34:15;17.90;99.90
7588;DHT22;3835;48.850;8.938;2023-05-10T13:36:41;17.60;99.90
7588;DHT22;3835;48.850;8.938;2023-05-10T13:39:10;17.60;99.90
7588;DHT22;3835;48.850;8.938;2023-05-10T13:41:36;17.40;99.90
7588;DHT22;3835;48.850;8.938;2023-05-10T13:44:03;17.30;99.90
7588;DHT22;3835;48.850;8.938;2023-05-10T13:46:30;17.20;99.90
7588;DHT22;3835;48.850;8.938;2023-05-10T13:48:57;17.60;99.90
7588;DHT22;3835;48.850;8.938;2023-05-10T13:51:24;18.10;99.90
7588;DHT22;3835;48.850;8.938;2023-05-10T13:53:50;18.40;99.90
7588;DHT22;3835;48.850;8.938;2023-05-10T13:56:18;18.60;99.90
7588;DHT22;3835;48.850;8.938;2023-05-10T13:58:45;18.30;99.90
7588;DHT22;3835;48.850;8.938;2023-05-10T14:01:13;18.10;99.90
7588;DHT22;3835;48.850;8.938;2023-05-10T14:03:39;17.80;99.90
7588;DHT22;3835;48.850;8.938;2023-05-10T14:06:07;17.80;99.90
7588;DHT22;3835;48.850;8.938;2023-05-10T14:08:34;17.40;99.90
7588;DHT22;3835;48.850;8.938;2023-05-10T14:11:01;17.10;99.90
7588;DHT22;3835;48.850;8.938;2023-05-10T14:13:29;16.60;99.90
7588;DHT22;3835;48.850;8.938;2023-05-10T14:15:56;16.70;99.90
7588;DHT22;3835;48.850;8.938;2023-05-10T14:18:24;16.80;99.90
7588;DHT22;3835;48.850;8.938;2023-05-10T14:20:51;17.00;99.90
7588;DHT22;3835;48.850;8.938;2023-05-10T14:23:18;16.70;99.90
7588;DHT22;3835;48.850;8.938;2023-05-10T14:25:49;17.00;99.90
7588;DHT22;3835;48.850;8.938;2023-05-10T14:28:16;17.20;99.90
7588;DHT22;3835;48.850;8.938;2023-05-10T14:30:45;17.00;99.90
7588;DHT22;3835;48.850;8.938;2023-05-10T14:33:12;16.90;99.90
7588;DHT22;3835;48.850;8.938;2023-05-10T14:35:38;16.70;99.90
7588;DHT22;3835;48.850;8.938;2023-05-10T14:38:05;16.70;99.90
7588;DHT22;3835;48.850;8.938;2023-05-10T14:40:32;16.80;99.90
7588;DHT22;3835;48.850;8.938;2023-05-10T14:42:59;16.60;99.90
7588;DHT22;3835;48.850;8.938;2023-05-10T14:45:26;17.00;99.90
7588;DHT22;3835;48.850;8.938;2023-05-10T14:47:54;17.10;99.90
7588;DHT22;3835;48.850;8.938;2023-05-10T14:50:21;17.20;99.90
7588;DHT22;3835;48.850;8.938;2023-05-10T14:52:48;17.00;99.90
7588;DHT22;3835;48.850;8.938;2023-05-10T14:55:15;17.00;99.90
7588;DHT22;3835;48.850;8.938;2023-05-10T14:57:42;16.70;99.90
7588;DHT22;3835;48.850;8.938;2023-05-10T15:00:12;16.70;99.90
7588;DHT22;3835;48.850;8.938;2023-05-10T15:02:40;16.70;99.90
7588;DHT22;3835;48.850;8.938;2023-05-10T15:05:09;16.70;99.90
7588;DHT22;3835;48.850;8.938;2023-05-10T15:07:35;16.50;99.90
7588;DHT22;3835;48.850;8.938;2023-05-10T15:10:03;16.80;99.90
7588;DHT22;3835;48.850;8.938;2023-05-10T15:12:29;17.10;99.90
7588;DHT22;3835;48.850;8.938;2023-05-10T15:14:56;17.40;99.90
7588;DHT22;3835;48.850;8.938;2023-05-10T15:17:23;17.60;99.90
7588;DHT22;3835;48.850;8.938;2023-05-10T15:19:50;17.50;99.90
7588;DHT22;3835;48.850;8.938;2023-05-10T15:22:18;17.70;99.90
7588;DHT22;3835;48.850;8.938;2023-05-10T15:24:45;17.30;99.90
7588;DHT22;3835;48.850;8.938;2023-05-10T15:27:11;17.10;99.90
7588;DHT22;3835;48.850;8.938;2023-05-10T15:29:38;16.80;99.90
7588;DHT22;3835;48.850;8.938;2023-05-10T15:32:05;16.80;99.90
7588;DHT22;3835;48.850;8.938;2023-05-10T15:34:32;16.50;99.90
7588;DHT22;3835;48.850;8.938;2023-05-10T15:36:58;16.80;99.90
7588;DHT22;3835;48.850;8.938;2023-05-10T15:39:26;16.80;99.90
7588;DHT22;3835;48.850;8.938;2023-05-10T15:41:53;16.80;99.90
7588;DHT22;3835;48.850;8.938;2023-05-10T15:44:20;16.80;99.90
7588;DHT22;3835;48.850;8.938;2023-05-10T15:46:47;16.40;99.90
7588;DHT22;3835;48.850;8.938;2023-05-10T15:49:14;16.30;99.90
7588;DHT22;3835;48.850;8.938;2023-05-10T15:51:41;16.30;99.90
7588;DHT22;3835;48.850;8.938;2023-05-10T15:54:08;16.30;99.90
7588;DHT22;3835;48.850;8.938;2023-05-10T15:56:36;16.40;99.90
7588;DHT22;3835;48.850;8.938;2023-05-10T15:59:03;16.50;99.90
7588;DHT22;3835;48.850;8.938;2023-05-10T16:01:33;16.70;99.90
7588;DHT22;3835;48.850;8.938;2023-05-10T16:04:00;16.90;99.90
7588;DHT22;3835;48.850;8.938;2023-05-10T16:06:27;17.00;99.90
7588;DHT22;3835;48.850;8.938;2023-05-10T16:08:53;16.80;99.90
7588;DHT22;3835;48.850;8.938;2023-05-10T16:11:20;16.80;99.90
7588;DHT22;3835;48.850;8.938;2023-05-10T16:13:48;16.90;99.90
7588;DHT22;3835;48.850;8.938;2023-05-10T16:16:15;16.70;99.90